Time;durP1;ratioP1;P1;durP2;ratioP2;P2;SDS_P1;SDS_P2;PMS_P1;PMS_P2;Temp;Humidity;BMP_temperature;BMP_pressure;BME280_temperature;BME280_humidity;BME280_pressure;Samples;Min_cycle;Max_cycle;Signal;HPM_P1;HPM_P2
2023/09/07 00:01:32;;;;;;;6.95;5.75;;;19.00;99.90;;;;;;4991936;28;90207;-34
2023/09/07 00:03:58;;;;;;;6.35;5.80;;;19.10;99.90;;;;;;4993471;28;90389;-32
2023/09/07 00:06:23;;;;;;;8.40;6.43;;;19.10;99.90;;;;;;4999064;28;89658;-34
2023/09/07 00:08:49;;;;;;;6.90;5.90;;;19.20;99.90;;;;;;4998869;28;90565;-39
2023/09/07 00:11:15;;;;;;;9.10;6.15;;;19.10;99.90;;;;;;4999859;28;89511;-36
2023/09/07 00:13:40;;;;;;;8.55;6.82;;;19.10;99.90;;;;;;4999067;28;90202;-36
2023/09/07 00:16:07;;;;;;;8.57;6.70;;;19.10;99.90;;;;;;5000018;28;89995;-32
2023/09/07 00:18:33;;;;;;;6.70;6.10;;;19.10;99.90;;;;;;4998966;28;90628;-32
2023/09/07 00:21:00;;;;;;;7.00;5.80;;;19.00;99.90;;;;;;4999628;28;89524;-38
2023/09/07 00:23:26;;;;;;;6.13;5.63;;;19.00;99.90;;;;;;4986288;28;89808;-35
2023/09/07 00:25:51;;;;;;;5.97;5.38;;;18.90;99.90;;;;;;4998982;28;90036;-33
2023/09/07 00:28:17;;;;;;;6.65;5.60;;;18.90;99.90;;;;;;4999073;28;90352;-35
2023/09/07 00:30:43;;;;;;;5.05;4.65;;;18.80;99.90;;;;;;4999540;28;88914;-36
2023/09/07 00:33:10;;;;;;;5.68;5.18;;;18.80;99.90;;;;;;4998187;28;89657;-39
2023/09/07 00:35:36;;;;;;;5.47;5.07;;;18.80;99.90;;;;;;4999536;28;89564;-34
2023/09/07 00:38:02;;;;;;;6.47;5.43;;;18.80;99.90;;;;;;4998938;28;89942;-36
2023/09/07 00:40:28;;;;;;;5.43;4.88;;;18.80;99.90;;;;;;4999229;28;90074;-33
2023/09/07 00:42:54;;;;;;;6.03;5.43;;;18.70;99.90;;;;;;4998864;28;90272;-33
2023/09/07 00:45:20;;;;;;;5.68;5.28;;;18.60;99.90;;;;;;4998605;28;90421;-34
2023/09/07 00:47:46;;;;;;;6.60;5.70;;;18.60;99.90;;;;;;4998807;28;89875;-37
2023/09/07 00:50:16;;;;;;;7.55;6.85;;;18.60;99.90;;;;;;4999307;28;88174;-34
2023/09/07 00:52:46;;;;;;;7.28;6.55;;;;;;;;;;4996135;28;89439;-34
2023/09/07 00:55:13;;;;;;;9.93;6.55;;;;;;;;;;4989746;28;89637;-37
2023/09/07 00:57:39;;;;;;;6.15;5.63;;;;;;;;;;4998588;28;89493;-32
2023/09/07 01:00:08;;;;;;;6.38;5.75;;;;;;;;;;4999685;28;88252;-33
2023/09/07 01:02:35;;;;;;;6.60;6.00;;;;;;;;;;4985537;28;90170;-36
2023/09/07 01:05:05;;;;;;;7.35;6.70;;;;;;;;;;4996849;28;89715;-36
2023/09/07 01:07:31;;;;;;;6.47;5.82;;;;;;;;;;4998391;28;90279;-39
2023/09/07 01:09:58;;;;;;;6.78;6.18;;;;;;;;;;4998999;28;88776;-35
2023/09/07 01:12:24;;;;;;;6.53;6.00;;;;;;;;;;4998574;28;90742;-32
2023/09/07 01:14:50;;;;;;;6.82;5.38;;;;;;;;;;4998657;28;90696;-36
2023/09/07 01:17:17;;;;;;;6.63;6.03;;;;;;;;;;4997699;28;90417;-33
2023/09/07 01:19:43;;;;;;;7.53;6.78;;;;;;;;;;4999214;28;89668;-37
2023/09/07 01:22:10;;;;;;;6.78;6.18;;;;;;;;;;4998359;28;90164;-36
2023/09/07 01:24:37;;;;;;;7.25;6.65;;;;;;;;;;4998230;28;89574;-37
2023/09/07 01:27:04;;;;;;;8.07;7.18;;;;;;;;;;4998805;28;89653;-39
2023/09/07 01:29:30;;;;;;;7.18;6.53;;;;;;;;;;4998760;28;88567;-32
2023/09/07 01:31:56;;;;;;;7.63;6.65;;;;;;;;;;4997822;28;90651;-33
2023/09/07 01:34:23;;;;;;;6.93;6.32;;;;;;;;;;4998438;28;89176;-34
2023/09/07 01:36:49;;;;;;;7.18;6.57;;;;;;;;;;4999289;28;89312;-33
2023/09/07 01:39:16;;;;;;;7.07;6.57;;;;;;;;;;4997934;28;90015;-36
2023/09/07 01:41:43;;;;;;;7.85;7.13;;;;;;;;;;4998491;28;89927;-39
2023/09/07 01:44:09;;;;;;;7.03;6.35;;;;;;;;;;4997983;28;89708;-35
2023/09/07 01:46:35;;;;;;;8.77;7.65;;;18.20;99.90;;;;;;4998576;28;88979;-33
2023/09/07 01:49:02;;;;;;;10.07;9.05;;;18.10;99.90;;;;;;4998739;28;90286;-33
2023/09/07 01:51:27;;;;;;;8.98;8.15;;;18.10;99.90;;;;;;4998411;28;89836;-36
2023/09/07 01:53:54;;;;;;;8.73;7.82;;;18.10;99.90;;;;;;4997225;28;90239;-34
2023/09/07 01:56:20;;;;;;;8.82;7.57;;;18.10;99.90;;;;;;4991337;28;90464;-33
2023/09/07 01:58:45;;;;;;;9.70;8.70;;;18.20;99.90;;;;;;5000622;28;88604;-38
2023/09/07 02:01:26;;;;;;;7.22;6.68;;;18.10;99.90;;;;;;4996680;28;90186;-35
2023/09/07 02:03:52;;;;;;;9.60;8.82;;;18.10;99.90;;;;;;4991646;28;91273;-36
2023/09/07 02:06:18;;;;;;;8.65;7.75;;;18.00;99.90;;;;;;4990711;28;90302;-33
2023/09/07 02:08:44;;;;;;;8.10;7.40;;;18.00;99.90;;;;;;5000748;28;89288;-36
2023/09/07 02:11:10;;;;;;;9.57;8.45;;;17.90;99.90;;;;;;5001706;28;90578;-34
2023/09/07 02:13:36;;;;;;;9.13;8.32;;;17.90;99.90;;;;;;5000869;28;89560;-36
2023/09/07 02:16:05;;;;;;;8.48;7.68;;;17.80;99.90;;;;;;5001274;28;89567;-34
2023/09/07 02:18:32;;;;;;;8.95;7.82;;;17.80;99.90;;;;;;5000489;28;88421;-36
2023/09/07 02:21:02;;;;;;;11.45;8.68;;;17.70;99.90;;;;;;5001912;28;90095;-39
2023/09/07 02:23:28;;;;;;;9.07;7.82;;;17.70;99.90;;;;;;4996907;28;89877;-38
2023/09/07 02:25:54;;;;;;;9.50;8.45;;;17.70;99.90;;;;;;4992373;28;91179;-34
2023/09/07 02:28:19;;;;;;;9.55;8.63;;;17.60;99.90;;;;;;4999839;28;90544;-36
2023/09/07 02:30:45;;;;;;;9.88;9.00;;;17.60;99.90;;;;;;5001247;28;90369;-37
2023/09/07 02:33:11;;;;;;;11.13;9.13;;;17.60;99.90;;;;;;5000440;28;89594;-39
2023/09/07 02:35:39;;;;;;;13.23;10.57;;;17.70;99.90;;;;;;5001405;28;89442;-37
2023/09/07 02:38:05;;;;;;;8.05;7.35;;;17.70;99.90;;;;;;5000580;28;88406;-36
2023/09/07 02:40:31;;;;;;;10.43;9.30;;;17.60;99.90;;;;;;5000852;28;89943;-36
2023/09/07 02:42:56;;;;;;;9.85;8.80;;;17.60;99.90;;;;;;5000330;28;89433;-33
2023/09/07 02:45:22;;;;;;;9.18;8.38;;;17.60;99.90;;;;;;5001918;28;88975;-34
2023/09/07 02:47:50;;;;;;;10.60;9.50;;;17.50;99.90;;;;;;5000691;28;89061;-38
2023/09/07 02:50:17;;;;;;;;;;;17.50;99.90;;;;;;5001160;28;90132;-35
2023/09/07 02:52:43;;;;;;;9.77;8.80;;;17.50;99.90;;;;;;5001713;28;90202;-32
2023/09/07 02:55:10;;;;;;;9.98;8.98;;;;;;;;;;5000728;28;90338;-33
2023/09/07 02:57:35;;;;;;;12.25;8.48;;;17.40;99.90;;;;;;4996295;28;90011;-36
2023/09/07 03:00:09;;;;;;;11.55;10.48;;;;;;;;;;4992820;28;90813;-37
2023/09/07 03:02:38;;;;;;;10.40;8.10;;;;;;;;;;4982249;28;89361;-35
2023/09/07 03:05:05;;;;;;;9.38;8.55;;;;;;;;;;4983156;28;90575;-35
2023/09/07 03:07:34;;;;;;;9.40;8.50;;;;;;;;;;4983514;28;90236;-34
2023/09/07 03:10:00;;;;;;;10.02;9.10;;;17.50;99.90;;;;;;5002249;28;88386;-36
2023/09/07 03:12:27;;;;;;;10.43;8.70;;;17.40;99.90;;;;;;4999590;28;90657;-34
2023/09/07 03:14:53;;;;;;;10.50;9.50;;;17.40;99.90;;;;;;4989777;28;90681;-34
2023/09/07 03:17:20;;;;;;;9.00;8.10;;;17.30;99.90;;;;;;4999195;28;89950;-31
2023/09/07 03:19:47;;;;;;;9.30;8.25;;;17.30;99.90;;;;;;5000705;28;90639;-33
2023/09/07 03:22:13;;;;;;;12.05;8.50;;;17.30;99.90;;;;;;5000483;28;90193;-37
2023/09/07 03:24:39;;;;;;;9.98;9.07;;;17.30;99.90;;;;;;4999954;28;89540;-36
2023/09/07 03:27:05;;;;;;;10.10;9.10;;;17.20;99.90;;;;;;4998493;28;89034;-37
2023/09/07 03:29:33;;;;;;;10.73;9.77;;;17.20;99.90;;;;;;4999688;28;89656;-37
2023/09/07 03:31:59;;;;;;;9.50;8.60;;;17.20;99.90;;;;;;4999851;28;90521;-37
2023/09/07 03:34:25;;;;;;;11.93;8.68;;;17.20;99.90;;;;;;4999858;28;89052;-34
2023/09/07 03:36:50;;;;;;;10.88;9.68;;;17.20;99.90;;;;;;5000697;28;89008;-36
2023/09/07 03:39:18;;;;;;;9.25;8.43;;;17.20;99.90;;;;;;4998979;28;90279;-34
2023/09/07 03:41:44;;;;;;;10.07;9.07;;;17.10;99.90;;;;;;4999258;28;90498;-36
2023/09/07 03:44:10;;;;;;;9.77;8.23;;;15.70;99.90;;;;;;5000187;28;90095;-33
2023/09/07 03:46:35;;;;;;;11.00;9.23;;;17.10;99.90;;;;;;5000074;28;89835;-36
2023/09/07 03:49:01;;;;;;;10.43;8.30;;;17.10;99.90;;;;;;5000039;28;89417;-38
2023/09/07 03:51:27;;;;;;;10.07;9.18;;;17.10;99.90;;;;;;4999248;28;90660;-36
2023/09/07 03:53:52;;;;;;;9.88;8.93;;;17.10;99.90;;;;;;4999199;28;90229;-38
2023/09/07 03:56:18;;;;;;;10.13;9.07;;;17.00;99.90;;;;;;4993495;28;89386;-32
2023/09/07 03:58:44;;;;;;;8.60;7.82;;;17.00;99.90;;;;;;4993550;28;90290;-35
2023/09/07 04:01:09;;;;;;;9.52;8.63;;;16.90;99.90;;;;;;4995924;28;88966;-32
2023/09/07 04:03:35;;;;;;;11.80;10.60;;;16.90;99.90;;;;;;4990949;28;89943;-34
2023/09/07 04:06:00;;;;;;;9.55;8.63;;;16.90;99.90;;;;;;4985657;28;90764;-39
2023/09/07 04:08:26;;;;;;;11.30;10.30;;;16.90;99.90;;;;;;4999433;28;90388;-36
2023/09/07 04:10:52;;;;;;;10.00;9.13;;;16.80;99.90;;;;;;4998305;28;90324;-38
2023/09/07 04:13:18;;;;;;;10.43;9.35;;;16.80;99.90;;;;;;4999657;28;89760;-36
2023/09/07 04:15:45;;;;;;;11.23;10.13;;;16.70;99.90;;;;;;4998658;28;89021;-38
2023/09/07 04:18:15;;;;;;;11.48;10.32;;;16.70;99.90;;;;;;4997915;28;90521;-38
2023/09/07 04:20:41;;;;;;;9.95;9.05;;;16.70;99.90;;;;;;4986697;28;90119;-39
2023/09/07 04:23:06;;;;;;;13.82;9.57;;;16.70;99.90;;;;;;4995904;28;89013;-32
2023/09/07 04:25:32;;;;;;;12.15;8.75;;;16.70;99.90;;;;;;4999262;28;88264;-34
2023/09/07 04:27:58;;;;;;;10.30;8.93;;;16.70;99.90;;;;;;4999225;28;90688;-36
2023/09/07 04:30:24;;;;;;;11.02;9.43;;;16.70;99.90;;;;;;4997984;28;90668;-34
2023/09/07 04:32:49;;;;;;;11.25;9.50;;;16.60;99.90;;;;;;4998233;28;90592;-34
2023/09/07 04:35:15;;;;;;;10.48;9.35;;;16.70;99.90;;;;;;4999225;28;88550;-33
2023/09/07 04:37:47;;;;;;;10.95;9.82;;;16.60;99.90;;;;;;4997698;28;90167;-32
2023/09/07 04:40:14;;;;;;;12.23;10.25;;;16.60;99.90;;;;;;4998105;28;90859;-35
2023/09/07 04:42:39;;;;;;;11.35;10.25;;;16.60;99.90;;;;;;4997260;28;88868;-36
2023/09/07 04:45:06;;;;;;;10.25;9.30;;;16.50;99.90;;;;;;4995370;28;89626;-32
2023/09/07 04:47:32;;;;;;;9.40;8.45;;;16.50;99.90;;;;;;4998652;28;89862;-33
2023/09/07 04:49:58;;;;;;;10.35;9.30;;;16.50;99.90;;;;;;4999335;28;89890;-36
2023/09/07 04:52:23;;;;;;;11.10;9.98;;;16.40;99.90;;;;;;4980863;28;90585;-32
2023/09/07 04:54:49;;;;;;;11.18;10.07;;;16.40;99.90;;;;;;4997496;28;89244;-35
2023/09/07 04:57:18;;;;;;;10.45;9.55;;;16.40;99.90;;;;;;4998714;28;89272;-36
2023/09/07 04:59:44;;;;;;;11.15;10.13;;;16.50;99.90;;;;;;4989778;28;89687;-34
2023/09/07 05:02:11;;;;;;;11.27;10.27;;;16.50;99.90;;;;;;4985032;28;89172;-33
2023/09/07 05:04:37;;;;;;;9.90;8.98;;;16.50;99.90;;;;;;4995342;28;89479;-34
2023/09/07 05:07:03;;;;;;;11.35;10.35;;;16.40;99.90;;;;;;4998671;28;90303;-33
2023/09/07 05:09:29;;;;;;;12.18;10.63;;;16.40;99.90;;;;;;4997148;28;90120;-35
2023/09/07 05:11:55;;;;;;;11.50;10.23;;;16.40;99.90;;;;;;4998627;28;89063;-36
2023/09/07 05:14:22;;;;;;;14.55;11.52;;;16.40;99.90;;;;;;4998286;28;89902;-33
2023/09/07 05:16:48;;;;;;;11.85;10.70;;;16.40;99.90;;;;;;4998080;28;90253;-35
2023/09/07 05:19:14;;;;;;;11.02;9.93;;;16.40;99.90;;;;;;4997382;28;90963;-33
2023/09/07 05:21:40;;;;;;;11.45;10.23;;;16.40;99.90;;;;;;4998499;28;90560;-36
2023/09/07 05:24:06;;;;;;;11.60;10.43;;;16.60;99.90;;;;;;4998220;28;88653;-36
2023/09/07 05:26:31;;;;;;;12.02;10.85;;;16.70;99.90;;;;;;4997558;28;89856;-38
2023/09/07 05:28:57;;;;;;;13.32;11.23;;;16.70;99.90;;;;;;5003322;28;90183;-32
2023/09/07 05:31:22;;;;;;;12.38;11.07;;;16.90;99.90;;;;;;5003311;28;89494;-36
2023/09/07 05:33:48;;;;;;;11.77;10.48;;;16.90;99.90;;;;;;5004799;28;88490;-38
2023/09/07 05:36:13;;;;;;;12.50;11.30;;;16.90;99.90;;;;;;5004863;28;90218;-34
2023/09/07 05:38:39;;;;;;;14.93;11.77;;;17.10;99.90;;;;;;5004267;28;91099;-33
2023/09/07 05:41:05;;;;;;;11.52;10.30;;;17.00;99.90;;;;;;5004212;28;89161;-34
2023/09/07 05:43:31;;;;;;;11.45;10.38;;;17.20;99.90;;;;;;5003982;28;88647;-33
2023/09/07 05:45:56;;;;;;;13.07;10.70;;;17.30;99.90;;;;;;5001028;28;89908;-33
2023/09/07 05:48:22;;;;;;;13.38;12.02;;;17.30;99.90;;;;;;5004526;28;90570;-32
2023/09/07 05:50:48;;;;;;;12.82;11.52;;;17.40;99.90;;;;;;5003873;28;89249;-37
2023/09/07 05:53:13;;;;;;;12.68;11.38;;;17.30;99.90;;;;;;5004119;28;89240;-39
2023/09/07 05:55:39;;;;;;;12.40;11.18;;;17.30;99.90;;;;;;5003776;28;90256;-35
2023/09/07 05:58:07;;;;;;;14.07;12.38;;;17.30;99.90;;;;;;5003994;28;89798;-40
2023/09/07 06:00:33;;;;;;;15.23;11.97;;;17.30;99.90;;;;;;5004407;28;88532;-33
2023/09/07 06:02:59;;;;;;;11.35;10.38;;;17.40;99.90;;;;;;4991202;28;89169;-33
2023/09/07 06:05:24;;;;;;;14.60;13.07;;;17.40;99.90;;;;;;4972810;28;90624;-37
2023/09/07 06:07:50;;;;;;;13.95;12.43;;;17.40;99.90;;;;;;5003865;28;90201;-34
2023/09/07 06:10:17;;;;;;;13.15;11.70;;;17.50;99.90;;;;;;5002509;28;90294;-36
2023/09/07 06:12:43;;;;;;;13.52;12.05;;;17.50;99.90;;;;;;5004409;28;88922;-37
2023/09/07 06:15:09;;;;;;;13.20;11.02;;;17.50;99.90;;;;;;5003772;28;91527;-35
2023/09/07 06:17:34;;;;;;;15.05;13.45;;;17.50;99.90;;;;;;5004328;28;90412;-32
2023/09/07 06:20:00;;;;;;;13.35;12.05;;;17.50;99.90;;;;;;4999987;28;90178;-36
2023/09/07 06:22:26;;;;;;;14.52;13.15;;;17.60;99.90;;;;;;5000135;28;89880;-34
2023/09/07 06:24:51;;;;;;;12.65;11.35;;;17.60;99.90;;;;;;4975784;28;90135;-38
2023/09/07 06:27:17;;;;;;;14.43;13.15;;;17.70;99.90;;;;;;5000695;28;89447;-36
2023/09/07 06:29:43;;;;;;;17.48;12.05;;;17.70;99.90;;;;;;5001764;28;89891;-38
2023/09/07 06:32:08;;;;;;;15.55;12.82;;;17.80;99.90;;;;;;5000227;28;88585;-34
2023/09/07 06:34:34;;;;;;;14.35;12.95;;;17.80;99.90;;;;;;5000890;28;90245;-35
2023/09/07 06:36:59;;;;;;;14.15;12.75;;;17.90;99.90;;;;;;4993832;28;89708;-34
2023/09/07 06:39:25;;;;;;;13.18;11.88;;;18.00;99.90;;;;;;4998295;28;89411;-33
2023/09/07 06:41:51;;;;;;;13.45;12.15;;;18.10;99.90;;;;;;4995675;28;89369;-37
2023/09/07 06:44:16;;;;;;;13.63;12.32;;;18.20;99.90;;;;;;4996897;28;91015;-36
2023/09/07 06:46:42;;;;;;;14.70;12.52;;;18.20;99.90;;;;;;4996883;28;89700;-36
2023/09/07 06:49:08;;;;;;;17.42;13.13;;;18.30;99.90;;;;;;4992335;28;90086;-35
2023/09/07 06:51:33;;;;;;;17.00;13.10;;;18.50;99.90;;;;;;4996438;28;89207;-34
2023/09/07 06:53:59;;;;;;;16.33;12.82;;;18.60;99.90;;;;;;4997151;28;90481;-36
2023/09/07 06:56:26;;;;;;;14.38;13.07;;;18.70;99.90;;;;;;4996267;28;90423;-35
2023/09/07 06:58:52;;;;;;;14.35;12.98;;;18.80;99.90;;;;;;4996957;28;88699;-36
2023/09/07 07:01:18;;;;;;;13.60;12.30;;;18.90;99.90;;;;;;4989685;28;88892;-33
2023/09/07 07:03:43;;;;;;;14.55;13.15;;;19.00;99.90;;;;;;4996539;28;90405;-33
2023/09/07 07:06:09;;;;;;;14.77;13.27;;;19.20;99.90;;;;;;4985538;28;89907;-35
2023/09/07 07:08:35;;;;;;;14.45;12.80;;;19.40;99.90;;;;;;4997792;28;89577;-32
2023/09/07 07:11:00;;;;;;;15.13;12.88;;;19.50;99.90;;;;;;4997532;28;88519;-34
2023/09/07 07:13:26;;;;;;;15.55;12.80;;;19.70;99.90;;;;;;4997298;28;90296;-34
2023/09/07 07:15:52;;;;;;;13.32;12.05;;;19.80;99.90;;;;;;4998318;28;90230;-35
2023/09/07 07:18:17;;;;;;;13.77;12.43;;;20.00;99.90;;;;;;4997097;28;90336;-36
2023/09/07 07:20:43;;;;;;;13.95;12.00;;;20.10;99.90;;;;;;4996516;28;89498;-32
2023/09/07 07:23:10;;;;;;;14.93;13.32;;;20.30;99.90;;;;;;4997311;28;90218;-35
2023/09/07 07:25:36;;;;;;;14.00;12.15;;;20.50;99.90;;;;;;4998147;28;90289;-33
2023/09/07 07:28:06;;;;;;;13.20;11.90;;;20.60;99.90;;;;;;4996643;28;90035;-37
2023/09/07 07:30:42;;;;;;;12.13;10.85;;;20.80;99.90;;;;;;4996971;28;88371;-36
2023/09/07 07:33:08;;;;;;;13.13;11.77;;;20.90;99.90;;;;;;4995601;28;89979;-35
2023/09/07 07:35:35;;;;;;;11.80;10.60;;;21.00;99.90;;;;;;4997408;28;89533;-35
2023/09/07 07:38:01;;;;;;;12.00;10.77;;;21.20;99.90;;;;;;4996958;28;89849;-36
2023/09/07 07:40:26;;;;;;;12.82;11.75;;;21.30;99.90;;;;;;4997817;28;88796;-34
2023/09/07 07:42:53;;;;;;;12.13;10.77;;;21.40;99.90;;;;;;4996197;28;90214;-35
2023/09/07 07:45:22;;;;;;;11.88;10.73;;;21.50;99.90;;;;;;4995794;28;90655;-32
2023/09/07 07:47:51;;;;;;;11.63;10.73;;;21.70;99.90;;;;;;4997159;28;89966;-37
2023/09/07 07:50:17;;;;;;;11.30;10.13;;;21.90;99.90;;;;;;4995849;28;89558;-38
2023/09/07 07:52:43;;;;;;;11.25;10.27;;;22.00;99.90;;;;;;4997366;28;89976;-37
2023/09/07 07:55:10;;;;;;;12.57;9.88;;;22.10;99.90;;;;;;4996438;28;89906;-35
2023/09/07 07:57:36;;;;;;;10.80;9.80;;;22.30;99.90;;;;;;4996903;28;90056;-37
2023/09/07 08:00:04;;;;;;;10.18;8.95;;;22.50;99.90;;;;;;4997828;28;87968;-34
2023/09/07 08:02:30;;;;;;;18.90;9.52;;;22.70;99.90;;;;;;4984216;28;89933;-36
2023/09/07 08:04:55;;;;;;;9.35;8.57;;;22.80;99.90;;;;;;4986298;28;90168;-36
2023/09/07 08:07:21;;;;;;;11.38;8.45;;;22.90;99.90;;;;;;4995150;28;89872;-34
2023/09/07 08:09:47;;;;;;;10.55;8.93;;;23.10;99.90;;;;;;4996936;28;89972;-34
2023/09/07 08:12:13;;;;;;;10.85;8.25;;;23.20;99.90;;;;;;4997321;28;90414;-32
2023/09/07 08:14:38;;;;;;;8.73;7.93;;;23.40;99.90;;;;;;4997265;28;88667;-37
2023/09/07 08:17:04;;;;;;;8.43;7.50;;;23.50;99.90;;;;;;4996797;28;89777;-36
2023/09/07 08:19:30;;;;;;;7.30;6.60;;;23.70;99.90;;;;;;4996820;28;88641;-34
2023/09/07 08:21:58;;;;;;;8.65;7.07;;;23.80;99.90;;;;;;4996831;28;91387;-34
2023/09/07 08:24:23;;;;;;;9.33;7.57;;;24.10;99.90;;;;;;4997121;28;89138;-38
2023/09/07 08:26:51;;;;;;;9.15;7.25;;;24.10;99.90;;;;;;4996367;28;89963;-34
2023/09/07 08:29:20;;;;;;;7.40;6.72;;;24.20;99.90;;;;;;4996749;28;88690;-37
2023/09/07 08:31:47;;;;;;;8.63;7.60;;;24.40;99.90;;;;;;5028424;22;90156;-31
2023/09/07 08:34:14;;;;;;;7.20;6.60;;;24.60;99.90;;;;;;4996512;28;90624;-32
2023/09/07 08:36:40;;;;;;;8.15;7.43;;;24.60;99.90;;;;;;4997391;28;89905;-35
2023/09/07 08:39:09;;;;;;;12.48;6.68;;;24.60;99.90;;;;;;4997251;28;87532;-34
2023/09/07 08:41:43;;;;;;;7.78;7.07;;;24.70;99.90;;;;;;4987110;28;90169;-33
2023/09/07 08:44:15;;;;;;;7.95;7.25;;;24.90;99.90;;;;;;4996125;28;89607;-34
2023/09/07 08:46:42;;;;;;;9.18;7.00;;;25.00;99.90;;;;;;4995874;28;90203;-33
2023/09/07 08:49:08;;;;;;;7.60;6.88;;;25.20;99.90;;;;;;4996537;28;89293;-31
2023/09/07 08:51:37;;;;;;;10.32;7.55;;;25.10;99.90;;;;;;4996111;28;90656;-36
2023/09/07 08:54:07;;;;;;;7.35;6.70;;;25.00;99.90;;;;;;4995596;28;89848;-32
2023/09/07 08:56:32;;;;;;;7.78;7.07;;;25.10;99.90;;;;;;4994801;28;89834;-32
2023/09/07 08:58:58;;;;;;;7.53;6.82;;;25.10;99.90;;;;;;4968844;28;90042;-34
2023/09/07 09:01:23;;;;;;;7.78;7.18;;;25.10;99.90;;;;;;4989268;28;89151;-37
2023/09/07 09:03:50;;;;;;;7.53;6.88;;;25.10;99.90;;;;;;4984099;28;89659;-37
2023/09/07 09:06:20;;;;;;;7.57;6.97;;;25.20;99.90;;;;;;4983388;28;89220;-33
2023/09/07 09:08:50;;;;;;;7.70;7.05;;;25.20;99.50;;;;;;4993993;28;88360;-35
2023/09/07 09:11:17;;;;;;;8.18;7.40;;;25.30;99.90;;;;;;4995131;28;90337;-33
2023/09/07 09:13:43;;;;;;;7.85;7.05;;;25.40;99.70;;;;;;4995661;28;89671;-37
2023/09/07 09:16:14;;;;;;;7.43;6.75;;;25.40;99.00;;;;;;4995687;28;88824;-33
2023/09/07 09:18:57;;;;;;;8.07;7.38;;;25.40;99.60;;;;;;4991036;28;88339;-33
2023/09/07 09:21:24;;;;;;;8.93;6.28;;;25.30;98.70;;;;;;4995655;28;90228;-32
2023/09/07 09:23:52;;;;;;;7.93;7.13;;;25.60;99.90;;;;;;4995633;28;90831;-33
2023/09/07 09:26:18;;;;;;;8.20;7.35;;;25.60;98.60;;;;;;4993686;28;90734;-32
2023/09/07 09:28:45;;;;;;;8.07;7.28;;;25.70;99.90;;;;;;4996470;28;88225;-34
2023/09/07 09:31:12;;;;;;;8.40;7.53;;;25.80;99.90;;;;;;4995544;28;90639;-32
2023/09/07 09:33:42;;;;;;;7.25;6.55;;;25.90;99.40;;;;;;4995485;28;89726;-30
2023/09/07 09:36:08;;;;;;;10.00;7.93;;;26.00;99.90;;;;;;4991152;28;89821;-35
2023/09/07 09:38:35;;;;;;;8.27;6.50;;;26.10;98.60;;;;;;4996158;28;89546;-37
2023/09/07 09:41:03;;;;;;;11.27;6.95;;;26.10;95.70;;;;;;4992445;28;90338;-31
2023/09/07 09:43:29;;;;;;;8.68;6.88;;;26.10;95.90;;;;;;4995254;28;89942;-35
2023/09/07 09:45:55;;;;;;;7.35;6.18;;;26.20;96.40;;;;;;4995171;28;89720;-35
2023/09/07 09:48:21;;;;;;;8.52;7.35;;;26.30;96.00;;;;;;4976195;28;88788;-35
2023/09/07 09:50:48;;;;;;;11.50;7.63;;;26.40;95.10;;;;;;4995822;28;90199;-32
2023/09/07 09:53:22;;;;;;;7.53;6.82;;;26.40;95.50;;;;;;4995277;28;89551;-35
2023/09/07 09:55:48;;;;;;;7.38;6.78;;;26.50;95.50;;;;;;4994466;28;89691;-36
2023/09/07 09:58:14;;;;;;;7.75;6.60;;;26.70;95.70;;;;;;4995697;28;89121;-33
2023/09/07 10:00:43;;;;;;;8.70;7.90;;;26.70;96.30;;;;;;4991996;28;89298;-34
2023/09/07 10:03:14;;;;;;;7.47;6.78;;;26.60;95.10;;;;;;4985692;28;89099;-32
2023/09/07 10:05:39;;;;;;;7.35;6.60;;;26.70;94.00;;;;;;4991397;28;89461;-33
2023/09/07 10:08:12;;;;;;;10.70;6.68;;;26.70;91.30;;;;;;4986310;28;89944;-34
2023/09/07 10:10:38;;;;;;;7.80;6.13;;;26.80;91.90;;;;;;4994468;28;90470;-32
2023/09/07 10:13:05;;;;;;;9.30;7.57;;;26.80;90.10;;;;;;4993729;28;90582;-34
2023/09/07 10:15:31;;;;;;;8.05;6.60;;;26.80;90.60;;;;;;4996502;28;88866;-36
2023/09/07 10:18:13;;;;;;;7.75;6.80;;;26.80;89.30;;;;;;4988965;28;90230;-32
2023/09/07 10:20:59;;;;;;;7.85;6.32;;;26.90;91.40;;;;;;4978142;28;90054;-35
2023/09/07 10:23:41;;;;;;;7.38;6.28;;;27.00;90.00;;;;;;4987423;28;90767;-33
2023/09/07 10:26:18;;;;;;;10.63;6.78;;;27.10;91.90;;;;;;4994151;28;89875;-36
2023/09/07 10:28:45;;;;;;;7.68;6.30;;;27.20;90.30;;;;;;4996473;28;89221;-35
2023/09/07 10:31:14;;;;;;;8.23;6.20;;;27.20;86.00;;;;;;4987093;28;89840;-36
2023/09/07 10:33:40;;;;;;;7.68;7.07;;;27.20;88.90;;;;;;4997704;28;89804;-38
2023/09/07 10:36:06;;;;;;;7.50;6.20;;;27.20;84.90;;;;;;4979882;28;89948;-35
2023/09/07 10:38:33;;;;;;;7.03;5.68;;;27.30;84.40;;;;;;4998776;28;89354;-35
2023/09/07 10:41:01;;;;;;;7.23;6.63;;;27.30;84.70;;;;;;4986277;28;90259;-35
2023/09/07 10:43:28;;;;;;;6.85;5.80;;;27.40;85.90;;;;;;4997163;28;89184;-31
2023/09/07 10:45:56;;;;;;;7.00;6.18;;;27.40;80.90;;;;;;4998248;28;89787;-33
2023/09/07 10:48:22;;;;;;;7.60;5.43;;;27.50;81.10;;;;;;4997247;28;89818;-34
2023/09/07 10:50:49;;;;;;;6.57;5.95;;;27.50;78.60;;;;;;4998472;28;91125;-33
2023/09/07 10:53:23;;;;;;;6.20;5.60;;;27.50;75.60;;;;;;4998087;28;88427;-38
2023/09/07 10:55:49;;;;;;;5.18;4.70;;;27.50;72.90;;;;;;4979319;28;88976;-33
2023/09/07 10:58:27;;;;;;;6.80;5.43;;;27.60;74.40;;;;;;4989980;28;88750;-35
2023/09/07 11:00:54;;;;;;;6.15;5.53;;;27.60;76.50;;;;;;4993027;28;89151;-36
2023/09/07 11:03:19;;;;;;;5.88;5.38;;;27.50;74.40;;;;;;4989659;28;90378;-37
2023/09/07 11:05:45;;;;;;;5.70;4.90;;;27.70;73.50;;;;;;4982986;28;90017;-33
2023/09/07 11:08:11;;;;;;;5.65;4.72;;;27.70;73.30;;;;;;4997631;28;88707;-36
2023/09/07 11:10:37;;;;;;;6.65;5.95;;;27.70;73.60;;;;;;4984119;28;90527;-32
2023/09/07 11:13:06;;;;;;;5.18;4.47;;;27.70;71.40;;;;;;4997583;28;90825;-35
2023/09/07 11:15:33;;;;;;;5.22;4.72;;;27.70;70.90;;;;;;4996955;28;89742;-34
2023/09/07 11:18:07;;;;;;;6.67;5.93;;;27.70;71.20;;;;;;4997201;28;88742;-33
2023/09/07 11:20:34;;;;;;;5.60;5.20;;;27.70;71.60;;;;;;4997296;28;92165;-34
2023/09/07 11:23:00;;;;;;;5.25;4.82;;;27.70;72.50;;;;;;4996980;28;89323;-36
2023/09/07 11:25:26;;;;;;;7.43;5.90;;;27.80;70.80;;;;;;4996289;28;89884;-35
2023/09/07 11:27:54;;;;;;;6.13;5.53;;;27.60;71.70;;;;;;4997458;28;89297;-37
2023/09/07 11:30:21;;;;;;;8.02;5.70;;;27.70;72.60;;;;;;4983769;28;89811;-32
2023/09/07 11:32:47;;;;;;;6.00;5.47;;;27.80;73.10;;;;;;4996555;28;89705;-37
2023/09/07 11:35:13;;;;;;;6.80;6.10;;;27.80;72.10;;;;;;4996944;28;89716;-35
2023/09/07 11:37:40;;;;;;;10.82;6.10;;;27.90;73.80;;;;;;4996746;28;90114;-33
2023/09/07 11:40:11;;;;;;;7.80;6.47;;;27.80;73.90;;;;;;4996974;28;89520;-34
2023/09/07 11:42:38;;;;;;;7.22;6.53;;;27.90;72.70;;;;;;4985094;28;89271;-37
2023/09/07 11:45:06;;;;;;;6.18;5.57;;;27.90;72.80;;;;;;4995490;28;88455;-34
2023/09/07 11:47:32;;;;;;;7.80;5.18;;;27.90;72.90;;;;;;4996608;28;89048;-34
2023/09/07 11:49:57;;;;;;;6.72;5.68;;;27.90;74.70;;;;;;4996845;28;89587;-33
2023/09/07 11:52:23;;;;;;;6.63;5.93;;;27.90;74.10;;;;;;4996691;28;90346;-33
2023/09/07 11:54:49;;;;;;;6.93;6.25;;;28.00;72.20;;;;;;4995229;28;90275;-32
2023/09/07 11:57:16;;;;;;;6.40;5.80;;;28.00;74.00;;;;;;4997250;28;90264;-34
2023/09/07 11:59:41;;;;;;;6.95;6.25;;;28.00;74.60;;;;;;4995554;28;90225;-35
2023/09/07 12:02:07;;;;;;;6.47;5.88;;;28.10;75.00;;;;;;4984435;28;89808;-36
2023/09/07 12:04:33;;;;;;;16.98;6.20;;;28.00;74.40;;;;;;4993441;28;89544;-36
2023/09/07 12:06:59;;;;;;;6.53;5.95;;;28.00;75.00;;;;;;4996112;28;88669;-34
2023/09/07 12:09:24;;;;;;;6.55;6.05;;;28.10;75.90;;;;;;4996171;28;90644;-34
2023/09/07 12:11:50;;;;;;;8.90;6.45;;;28.10;74.30;;;;;;4997196;28;89592;-35
2023/09/07 12:14:15;;;;;;;6.75;6.15;;;28.20;73.90;;;;;;4996400;28;88918;-34
2023/09/07 12:16:41;;;;;;;5.97;5.47;;;28.10;74.70;;;;;;4995399;28;90087;-34
2023/09/07 12:19:07;;;;;;;6.70;6.10;;;28.20;75.40;;;;;;4996206;28;90433;-37
2023/09/07 12:21:32;;;;;;;10.25;6.28;;;28.20;74.60;;;;;;4997384;28;90998;-32
2023/09/07 12:23:58;;;;;;;6.93;6.22;;;28.10;74.60;;;;;;4995652;28;89486;-33
2023/09/07 12:26:24;;;;;;;9.15;6.00;;;28.10;74.80;;;;;;4996321;28;89298;-36
2023/09/07 12:28:49;;;;;;;6.78;6.00;;;28.10;75.60;;;;;;4991133;28;91086;-36
2023/09/07 12:31:15;;;;;;;5.72;5.22;;;28.10;75.00;;;;;;4995035;28;90085;-34
2023/09/07 12:33:41;;;;;;;6.47;5.72;;;28.00;74.50;;;;;;4997273;28;90600;-33
2023/09/07 12:36:10;;;;;;;6.60;5.95;;;28.00;74.70;;;;;;4995739;28;88696;-33
2023/09/07 12:38:36;;;;;;;6.95;6.15;;;28.10;75.80;;;;;;4994180;28;90530;-37
2023/09/07 12:41:02;;;;;;;6.38;5.70;;;28.20;76.60;;;;;;4995971;28;90768;-37
2023/09/07 12:43:28;;;;;;;6.90;6.25;;;28.20;73.20;;;;;;4995648;28;90489;-34
2023/09/07 12:45:53;;;;;;;5.85;5.45;;;28.20;75.70;;;;;;4996496;28;89286;-38